MSC Lirica — HOPW — position and weather

sailwx.info

Track history (hours):
 
Tides and Currents Weather Stations Pressure Air Temp Water Temp Dewpoint Dewpoint Depression Visibility Wind Speed Wind Dir Waves Ship Positions

MSC Lirica

Operator: Mediterranean Shipping Company

Last reported at 2018-Oct-22 06:30 UTC. Time now 2018-Oct-22 06:45 UTC.
Position N 37°27' E 025°19'.

Length 275 m; draft 6.8 m.

Type: Ship. MMSI: 356042000.

Date/timePositionNaut miles runAvg speedWind from/ knotsBaromVisibWave heightAir tempDewpointWater temp
2018-Oct-22 06:30N 37°27' E 025°19'0 0.0
2018-Oct-22 06:02N 37°27' E 025°19'0 0.1
2018-Oct-22 05:59N 37°27' E 025°19'0 0.0
2018-Oct-22 05:29N 37°27' E 025°19'0 0.0
2018-Oct-22 05:02N 37°27' E 025°19'0 0.1
2018-Oct-22 04:56N 37°27' E 025°19'0 0.0
2018-Oct-22 04:30N 37°27' E 025°19'0 0.2
2018-Oct-22 04:03N 37°27' E 025°19'0 1.3
2018-Oct-22 04:00N 37°28' E 025°19'2 4.7
2018-Oct-22 03:30N 37°27' E 025°16'511.3
2018-Oct-22 03:03N 37°26' E 025°10'111.9
2018-Oct-22 03:00N 37°26' E 025°10'714.0
2018-Oct-22 02:28N 37°20' E 025°04'614.1
2018-Oct-22 02:03N 37°17' E 024°58'113.9
2018-Oct-22 02:00N 37°16' E 024°57'714.1
2018-Oct-22 01:30N 37°12' E 024°50'  
2018-Oct-19 21:21N 44°14' E 013°12'620.3
2018-Oct-19 21:02N 44°20' E 013°09'120.4
2018-Oct-19 21:00N 44°21' E 013°09'1020.4
2018-Oct-19 20:30N 44°31' E 013°04'920.2
2018-Oct-19 20:03N 44°40' E 013°00'119.7
2018-Oct-19 20:00N 44°40' E 012°60'1019.8
2018-Oct-19 19:30N 44°49' E 012°52'920.2
2018-Oct-19 19:03N 44°57' E 012°48'120.4
2018-Oct-19 19:00N 44°58' E 012°47'1019.9
2018-Oct-19 18:30N 45°07' E 012°41'919.5
2018-Oct-19 18:03N 45°13' E 012°31'120.2
2018-Oct-19 18:00N 45°14' E 012°31'919.1
2018-Oct-19 17:30N 45°23' E 012°29'510.7
2018-Oct-19 17:03N 45°26' E 012°24'0 7.0
2018-Oct-19 17:00N 45°26' E 012°23'2 4.7
2018-Oct-19 16:30N 45°26' E 012°20'1 2.2
2018-Oct-19 16:02N 45°26' E 012°19'0 0.0
2018-Oct-19 15:29N 45°26' E 012°19'0 0.0
2018-Oct-19 14:31N 45°26' E 012°19'0 0.0
2018-Oct-19 14:01N 45°26' E 012°19'0 0.0
2018-Oct-19 13:28N 45°26' E 012°19'0 0.0
2018-Oct-19 12:54N 45°26' E 012°19'0 0.0
2018-Oct-19 12:12N 45°26' E 012°19'0 0.0
2018-Oct-19 11:42N 45°26' E 012°19'0 0.0
2018-Oct-19 11:00N 45°26' E 012°19'0 0.0
2018-Oct-19 10:26N 45°26' E 012°19'0 0.0
2018-Oct-19 09:56N 45°26' E 012°19'0 0.0
2018-Oct-19 09:20N 45°26' E 012°19'0 0.0
2018-Oct-19 08:32N 45°26' E 012°19'0 0.0
2018-Oct-19 08:26N 45°26' E 012°19'0 0.0
2018-Oct-19 07:19N 45°26' E 012°19'0 0.0
2018-Oct-19 06:43N 45°26' E 012°19'0 0.0
2018-Oct-19 05:54N 45°26' E 012°19'0 0.0
2018-Oct-19 05:30N 45°26' E 012°19'1 1.5
2018-Oct-19 05:02N 45°26' E 012°19'0 5.5
2018-Oct-19 05:01N 45°26' E 012°20'2 4.8
2018-Oct-19 04:30N 45°26' E 012°23'4 7.9
2018-Oct-19 04:04N 45°25' E 012°28'1 8.1
2018-Oct-19 04:00N 45°24' E 012°28'611.7
2018-Oct-19 03:30N 45°19' E 012°32'914.7
2018-Oct-19 02:55N 45°13' E 012°40'716.7
2018-Oct-19 02:30N 45°08' E 012°48'817.0
2018-Oct-19 02:03N 45°05' E 012°57'117.4
2018-Oct-19 02:00N 45°04' E 012°58'1019.2
2018-Oct-19 01:30N 45°00' E 013°10'920.0
2018-Oct-19 01:03N 44°56' E 013°22'119.8
2018-Oct-19 01:00N 44°56' E 013°23'1020.0
2018-Oct-19 00:29N 44°47' E 013°31'920.0
2018-Oct-19 00:03N 44°39' E 013°37'120.2
2018-Oct-19 00:00N 44°39' E 013°38'1020.4
2018-Oct-18 23:30N 44°30' E 013°46'920.4
2018-Oct-18 23:03N 44°23' E 013°53'120.0
2018-Oct-18 23:00N 44°22' E 013°54'1020.2
2018-Oct-18 22:29N 44°13' E 014°02'920.2
2018-Oct-18 22:03N 44°06' E 014°08'120.2
2018-Oct-18 22:00N 44°05' E 014°09'1020.3
2018-Oct-18 21:30N 43°56' E 014°17'  
2018-Oct-15 20:18N 37°05' E 024°58'417.8
2018-Oct-15 20:04N 37°09' E 024°60'117.8
2018-Oct-15 20:01N 37°10' E 025°00'917.5
2018-Oct-15 19:31N 37°18' E 025°04'817.4
2018-Oct-15 19:04N 37°25' E 025°09'116.9
2018-Oct-15 19:01N 37°26' E 025°10'714.6
2018-Oct-15 18:30N 37°28' E 025°18'1 1.7
2018-Oct-15 18:03N 37°28' E 025°19'0 0.0
2018-Oct-15 18:00N 37°28' E 025°19'0 0.0
2018-Oct-15 17:30N 37°28' E 025°19'0 0.0
2018-Oct-15 17:03N 37°28' E 025°19'0 0.0
2018-Oct-15 17:00N 37°28' E 025°19'0 0.0
2018-Oct-15 16:29N 37°28' E 025°19'0 0.0
2018-Oct-15 16:02N 37°28' E 025°19'0 0.0
2018-Oct-15 15:59N 37°28' E 025°19'0 0.0
2018-Oct-15 15:29N 37°28' E 025°19'0 0.0
2018-Oct-15 15:02N 37°28' E 025°19'0 0.0
2018-Oct-15 14:59N 37°28' E 025°19'0 0.0
2018-Oct-15 14:29N 37°28' E 025°19'0 0.0
2018-Oct-15 13:58N 37°28' E 025°19'0 0.0
2018-Oct-15 13:28N 37°28' E 025°19'0 0.0
2018-Oct-15 13:01N 37°28' E 025°19'0 0.0
2018-Oct-15 12:58N 37°28' E 025°19'0 0.0
2018-Oct-15 12:28N 37°28' E 025°19'0 0.0
2018-Oct-15 12:03N 37°28' E 025°19'0 0.0
2018-Oct-15 12:00N 37°28' E 025°19'0 0.0
2018-Oct-15 11:30N 37°28' E 025°19'0 0.0
2018-Oct-15 11:03N 37°28' E 025°19'0 0.0
2018-Oct-15 11:00N 37°28' E 025°19'0 0.0
2018-Oct-15 10:30N 37°28' E 025°19'0 0.0
2018-Oct-15 09:57N 37°28' E 025°19'0 0.0
2018-Oct-15 09:29N 37°28' E 025°19'0 0.0
2018-Oct-15 09:02N 37°28' E 025°19'0 0.0
2018-Oct-15 08:59N 37°28' E 025°19'0 0.0
2018-Oct-15 08:29N 37°28' E 025°19'0 0.0
2018-Oct-15 08:02N 37°28' E 025°19'0 0.0
2018-Oct-15 07:59N 37°28' E 025°19'0 0.0
2018-Oct-15 07:28N 37°28' E 025°19'0 0.0
2018-Oct-15 07:01N 37°28' E 025°19'0 0.0
2018-Oct-15 06:58N 37°28' E 025°19'0 0.0
2018-Oct-15 06:25N 37°28' E 025°19'0 0.0
2018-Oct-15 06:01N 37°28' E 025°19'0 0.0
2018-Oct-15 05:58N 37°28' E 025°19'0 0.0
2018-Oct-15 05:28N 37°28' E 025°19'0 0.0
2018-Oct-15 04:57N 37°28' E 025°19'0 0.0
2018-Oct-15 04:30N 37°28' E 025°19'0 0.1
2018-Oct-15 04:03N 37°28' E 025°19'0 0.8
2018-Oct-15 04:01N 37°28' E 025°19'3 6.2
2018-Oct-15 03:30N 37°28' E 025°15'4 8.0
2018-Oct-15 03:04N 37°27' E 025°11'0 8.3
2018-Oct-15 03:01N 37°27' E 025°11'5 9.1
2018-Oct-15 02:31N 37°23' E 025°07'612.5
2018-Oct-15 02:04N 37°19' E 025°02'113.8
2018-Oct-15 02:01N 37°19' E 025°02'713.8
2018-Oct-15 01:30N 37°15' E 024°54'  
2018-Oct-12 21:21N 44°07' E 013°22'619.9
2018-Oct-12 21:03N 44°10' E 013°15'119.6
2018-Oct-12 20:59N 44°11' E 013°14'1019.9
2018-Oct-12 20:30N 44°20' E 013°09'919.9
2018-Oct-12 20:02N 44°29' E 013°05'120.1
2018-Oct-12 20:00N 44°29' E 013°05'1020.0
2018-Oct-12 19:30N 44°39' E 013°01'919.8
2018-Oct-12 19:03N 44°47' E 012°55'119.6
2018-Oct-12 19:00N 44°48' E 012°55'1019.9
2018-Oct-12 18:30N 44°57' E 012°49'920.0
2018-Oct-12 18:03N 45°05' E 012°43'119.9
2018-Oct-12 18:00N 45°06' E 012°42'1019.8
2018-Oct-12 17:30N 45°12' E 012°31'919.5
2018-Oct-12 17:03N 45°21' E 012°30'118.7
2018-Oct-12 17:00N 45°21' E 012°30'611.3
2018-Oct-12 16:30N 45°26' E 012°25'2 5.3
2018-Oct-12 16:03N 45°26' E 012°21'0 5.9
2018-Oct-12 16:00N 45°26' E 012°21'2 3.4
2018-Oct-12 15:29N 45°26' E 012°18'0 0.0
2018-Oct-12 15:02N 45°26' E 012°18'0 0.0
2018-Oct-12 14:59N 45°26' E 012°18'0 0.0
2018-Oct-12 14:29N 45°26' E 012°18'0 0.0
2018-Oct-12 13:58N 45°26' E 012°18'0 0.0
2018-Oct-12 13:25N 45°26' E 012°18'0 0.0
2018-Oct-12 13:01N 45°26' E 012°18'0 0.0
2018-Oct-12 12:58N 45°26' E 012°18'0 0.0
2018-Oct-12 12:28N 45°26' E 012°18'0 0.0
2018-Oct-12 12:01N 45°26' E 012°18'0 0.0
2018-Oct-12 11:30N 45°26' E 012°18'0 0.0
2018-Oct-12 11:03N 45°26' E 012°18'0 0.0
2018-Oct-12 11:00N 45°26' E 012°18'0 0.0
2018-Oct-12 10:30N 45°26' E 012°18'0 0.0
2018-Oct-12 10:00N 45°26' E 012°18'0 0.0
2018-Oct-12 09:29N 45°26' E 012°18'0 0.0
2018-Oct-12 09:02N 45°26' E 012°18'0 0.0
2018-Oct-12 08:56N 45°26' E 012°18'0 0.0
2018-Oct-12 08:29N 45°26' E 012°19'0 0.0
2018-Oct-12 08:02N 45°26' E 012°19'0 0.0
2018-Oct-12 07:56N 45°26' E 012°19'0 0.0
2018-Oct-12 07:26N 45°26' E 012°18'0 0.0
2018-Oct-12 07:01N 45°26' E 012°18'0 0.0
2018-Oct-12 06:58N 45°26' E 012°18'  
Track history (hours):
 
Tides and Currents Weather Stations Pressure Air Temp Water Temp Dewpoint Dewpoint Depression Visibility Wind Speed Wind Dir Waves Ship Positions

MSC Lirica

Operator: Mediterranean Shipping Company

Last reported at 2018-Oct-22 06:30 UTC. Time now 2018-Oct-22 06:45 UTC.
Position N 37°27' E 025°19'.

Length 275 m; draft 6.8 m.

Type: Ship. MMSI: 356042000.

Date/timePositionNaut miles runAvg speedWind from/ knotsBaromVisibWave heightAir tempDewpointWater temp
2018-Oct-22 06:30N 37°27' E 025°19'0 0.0
2018-Oct-22 06:02N 37°27' E 025°19'0 0.1
2018-Oct-22 05:59N 37°27' E 025°19'0 0.0
2018-Oct-22 05:29N 37°27' E 025°19'0 0.0
2018-Oct-22 05:02N 37°27' E 025°19'0 0.1
2018-Oct-22 04:56N 37°27' E 025°19'0 0.0
2018-Oct-22 04:30N 37°27' E 025°19'0 0.2
2018-Oct-22 04:03N 37°27' E 025°19'0 1.3
2018-Oct-22 04:00N 37°28' E 025°19'2 4.7
2018-Oct-22 03:30N 37°27' E 025°16'511.3
2018-Oct-22 03:03N 37°26' E 025°10'111.9
2018-Oct-22 03:00N 37°26' E 025°10'714.0
2018-Oct-22 02:28N 37°20' E 025°04'614.1
2018-Oct-22 02:03N 37°17' E 024°58'113.9
2018-Oct-22 02:00N 37°16' E 024°57'714.1
2018-Oct-22 01:30N 37°12' E 024°50'  
2018-Oct-19 21:21N 44°14' E 013°12'620.3
2018-Oct-19 21:02N 44°20' E 013°09'120.4
2018-Oct-19 21:00N 44°21' E 013°09'1020.4
2018-Oct-19 20:30N 44°31' E 013°04'920.2
2018-Oct-19 20:03N 44°40' E 013°00'119.7
2018-Oct-19 20:00N 44°40' E 012°60'1019.8
2018-Oct-19 19:30N 44°49' E 012°52'920.2
2018-Oct-19 19:03N 44°57' E 012°48'120.4
2018-Oct-19 19:00N 44°58' E 012°47'1019.9
2018-Oct-19 18:30N 45°07' E 012°41'919.5
2018-Oct-19 18:03N 45°13' E 012°31'120.2
2018-Oct-19 18:00N 45°14' E 012°31'919.1
2018-Oct-19 17:30N 45°23' E 012°29'510.7
2018-Oct-19 17:03N 45°26' E 012°24'0 7.0
2018-Oct-19 17:00N 45°26' E 012°23'2 4.7
2018-Oct-19 16:30N 45°26' E 012°20'1 2.2
2018-Oct-19 16:02N 45°26' E 012°19'0 0.0
2018-Oct-19 15:29N 45°26' E 012°19'0 0.0
2018-Oct-19 14:31N 45°26' E 012°19'0 0.0
2018-Oct-19 14:01N 45°26' E 012°19'0 0.0
2018-Oct-19 13:28N 45°26' E 012°19'0 0.0
2018-Oct-19 12:54N 45°26' E 012°19'0 0.0
2018-Oct-19 12:12N 45°26' E 012°19'0 0.0
2018-Oct-19 11:42N 45°26' E 012°19'0 0.0
2018-Oct-19 11:00N 45°26' E 012°19'0 0.0
2018-Oct-19 10:26N 45°26' E 012°19'0 0.0
2018-Oct-19 09:56N 45°26' E 012°19'0 0.0
2018-Oct-19 09:20N 45°26' E 012°19'0 0.0
2018-Oct-19 08:32N 45°26' E 012°19'0 0.0
2018-Oct-19 08:26N 45°26' E 012°19'0 0.0
2018-Oct-19 07:19N 45°26' E 012°19'0 0.0
2018-Oct-19 06:43N 45°26' E 012°19'0 0.0
2018-Oct-19 05:54N 45°26' E 012°19'0 0.0
2018-Oct-19 05:30N 45°26' E 012°19'1 1.5
2018-Oct-19 05:02N 45°26' E 012°19'0 5.5
2018-Oct-19 05:01N 45°26' E 012°20'2 4.8
2018-Oct-19 04:30N 45°26' E 012°23'4 7.9
2018-Oct-19 04:04N 45°25' E 012°28'1 8.1
2018-Oct-19 04:00N 45°24' E 012°28'611.7
2018-Oct-19 03:30N 45°19' E 012°32'914.7
2018-Oct-19 02:55N 45°13' E 012°40'716.7
2018-Oct-19 02:30N 45°08' E 012°48'817.0
2018-Oct-19 02:03N 45°05' E 012°57'117.4
2018-Oct-19 02:00N 45°04' E 012°58'1019.2
2018-Oct-19 01:30N 45°00' E 013°10'920.0
2018-Oct-19 01:03N 44°56' E 013°22'119.8
2018-Oct-19 01:00N 44°56' E 013°23'1020.0
2018-Oct-19 00:29N 44°47' E 013°31'920.0
2018-Oct-19 00:03N 44°39' E 013°37'120.2
2018-Oct-19 00:00N 44°39' E 013°38'1020.4
2018-Oct-18 23:30N 44°30' E 013°46'920.4
2018-Oct-18 23:03N 44°23' E 013°53'120.0
2018-Oct-18 23:00N 44°22' E 013°54'1020.2
2018-Oct-18 22:29N 44°13' E 014°02'920.2
2018-Oct-18 22:03N 44°06' E 014°08'120.2
2018-Oct-18 22:00N 44°05' E 014°09'1020.3
2018-Oct-18 21:30N 43°56' E 014°17'  
2018-Oct-15 20:18N 37°05' E 024°58'417.8
2018-Oct-15 20:04N 37°09' E 024°60'117.8
2018-Oct-15 20:01N 37°10' E 025°00'917.5
2018-Oct-15 19:31N 37°18' E 025°04'817.4
2018-Oct-15 19:04N 37°25' E 025°09'116.9
2018-Oct-15 19:01N 37°26' E 025°10'714.6
2018-Oct-15 18:30N 37°28' E 025°18'1 1.7
2018-Oct-15 18:03N 37°28' E 025°19'0 0.0
2018-Oct-15 18:00N 37°28' E 025°19'0 0.0
2018-Oct-15 17:30N 37°28' E 025°19'0 0.0
2018-Oct-15 17:03N 37°28' E 025°19'0 0.0
2018-Oct-15 17:00N 37°28' E 025°19'0 0.0
2018-Oct-15 16:29N 37°28' E 025°19'0 0.0
2018-Oct-15 16:02N 37°28' E 025°19'0 0.0
2018-Oct-15 15:59N 37°28' E 025°19'0 0.0
2018-Oct-15 15:29N 37°28' E 025°19'0 0.0
2018-Oct-15 15:02N 37°28' E 025°19'0 0.0
2018-Oct-15 14:59N 37°28' E 025°19'0 0.0
2018-Oct-15 14:29N 37°28' E 025°19'0 0.0
2018-Oct-15 13:58N 37°28' E 025°19'0 0.0
2018-Oct-15 13:28N 37°28' E 025°19'0 0.0
2018-Oct-15 13:01N 37°28' E 025°19'0 0.0
2018-Oct-15 12:58N 37°28' E 025°19'0 0.0
2018-Oct-15 12:28N 37°28' E 025°19'0 0.0
2018-Oct-15 12:03N 37°28' E 025°19'0 0.0
2018-Oct-15 12:00N 37°28' E 025°19'0 0.0
2018-Oct-15 11:30N 37°28' E 025°19'0 0.0
2018-Oct-15 11:03N 37°28' E 025°19'0 0.0
2018-Oct-15 11:00N 37°28' E 025°19'0 0.0
2018-Oct-15 10:30N 37°28' E 025°19'0 0.0
2018-Oct-15 09:57N 37°28' E 025°19'0 0.0
2018-Oct-15 09:29N 37°28' E 025°19'0 0.0
2018-Oct-15 09:02N 37°28' E 025°19'0 0.0
2018-Oct-15 08:59N 37°28' E 025°19'0 0.0
2018-Oct-15 08:29N 37°28' E 025°19'0 0.0
2018-Oct-15 08:02N 37°28' E 025°19'0 0.0
2018-Oct-15 07:59N 37°28' E 025°19'0 0.0
2018-Oct-15 07:28N 37°28' E 025°19'0 0.0
2018-Oct-15 07:01N 37°28' E 025°19'0 0.0
2018-Oct-15 06:58N 37°28' E 025°19'0 0.0
2018-Oct-15 06:25N 37°28' E 025°19'0 0.0
2018-Oct-15 06:01N 37°28' E 025°19'0 0.0
2018-Oct-15 05:58N 37°28' E 025°19'0 0.0
2018-Oct-15 05:28N 37°28' E 025°19'0 0.0
2018-Oct-15 04:57N 37°28' E 025°19'0 0.0
2018-Oct-15 04:30N 37°28' E 025°19'0 0.1
2018-Oct-15 04:03N 37°28' E 025°19'0 0.8
2018-Oct-15 04:01N 37°28' E 025°19'3 6.2
2018-Oct-15 03:30N 37°28' E 025°15'4 8.0
2018-Oct-15 03:04N 37°27' E 025°11'0 8.3
2018-Oct-15 03:01N 37°27' E 025°11'5 9.1
2018-Oct-15 02:31N 37°23' E 025°07'612.5
2018-Oct-15 02:04N 37°19' E 025°02'113.8
2018-Oct-15 02:01N 37°19' E 025°02'713.8
2018-Oct-15 01:30N 37°15' E 024°54'  
2018-Oct-12 21:21N 44°07' E 013°22'619.9
2018-Oct-12 21:03N 44°10' E 013°15'119.6
2018-Oct-12 20:59N 44°11' E 013°14'1019.9
2018-Oct-12 20:30N 44°20' E 013°09'919.9
2018-Oct-12 20:02N 44°29' E 013°05'120.1
2018-Oct-12 20:00N 44°29' E 013°05'1020.0
2018-Oct-12 19:30N 44°39' E 013°01'919.8
2018-Oct-12 19:03N 44°47' E 012°55'119.6
2018-Oct-12 19:00N 44°48' E 012°55'1019.9
2018-Oct-12 18:30N 44°57' E 012°49'920.0
2018-Oct-12 18:03N 45°05' E 012°43'119.9
2018-Oct-12 18:00N 45°06' E 012°42'1019.8
2018-Oct-12 17:30N 45°12' E 012°31'919.5
2018-Oct-12 17:03N 45°21' E 012°30'118.7
2018-Oct-12 17:00N 45°21' E 012°30'611.3
2018-Oct-12 16:30N 45°26' E 012°25'2 5.3
2018-Oct-12 16:03N 45°26' E 012°21'0 5.9
2018-Oct-12 16:00N 45°26' E 012°21'2 3.4
2018-Oct-12 15:29N 45°26' E 012°18'0 0.0
2018-Oct-12 15:02N 45°26' E 012°18'0 0.0
2018-Oct-12 14:59N 45°26' E 012°18'0 0.0
2018-Oct-12 14:29N 45°26' E 012°18'0 0.0
2018-Oct-12 13:58N 45°26' E 012°18'0 0.0
2018-Oct-12 13:25N 45°26' E 012°18'0 0.0
2018-Oct-12 13:01N 45°26' E 012°18'0 0.0
2018-Oct-12 12:58N 45°26' E 012°18'0 0.0
2018-Oct-12 12:28N 45°26' E 012°18'0 0.0
2018-Oct-12 12:01N 45°26' E 012°18'0 0.0
2018-Oct-12 11:30N 45°26' E 012°18'0 0.0
2018-Oct-12 11:03N 45°26' E 012°18'0 0.0
2018-Oct-12 11:00N 45°26' E 012°18'0 0.0
2018-Oct-12 10:30N 45°26' E 012°18'0 0.0
2018-Oct-12 10:00N 45°26' E 012°18'0 0.0
2018-Oct-12 09:29N 45°26' E 012°18'0 0.0
2018-Oct-12 09:02N 45°26' E 012°18'0 0.0
2018-Oct-12 08:56N 45°26' E 012°18'0 0.0
2018-Oct-12 08:29N 45°26' E 012°19'0 0.0
2018-Oct-12 08:02N 45°26' E 012°19'0 0.0
2018-Oct-12 07:56N 45°26' E 012°19'0 0.0
2018-Oct-12 07:26N 45°26' E 012°18'0 0.0
2018-Oct-12 07:01N 45°26' E 012°18'0 0.0
2018-Oct-12 06:58N 45°26' E 012°18'  

Dump ship's entire track history